Boring, Oregon
Current Conditions -  °F | °C
As of 4:26 AM on Wednesday 28 Jan 2015 (Local Time) from KTTD Reporting Station
Light Rain Light Rain  
Wind Chill: 49°   Ceiling: 300
Heat Index: 49°   Visibility: 2mi
Dew Point: 47°   Wind: 0mph
Humidity: 93%   Direction: NA
Pressure: 30.31"   Gusts: NA
Location:  45.43°N, 122.38°W
Report Text: KTTD 281226Z AUTO 00000KT 2SM -RA BR OVC003 09/08 A3031 RMK AO2 RAB1158 P0001 T00940083
Loading
Personal Weather Stations






























Interactive Weather Map New forecast layout! Learn more

10-Day Weather Forecast

Advertisements
Track Severe Weather on mobile